sensor_id;sensor_type;location;lat;lon;timestamp;temperature;humidity
10312;DHT22;5201;48.776;9.128;2023-02-01T00:01:29;4.10;99.90
10312;DHT22;5201;48.776;9.128;2023-02-01T00:03:55;4.80;99.90
10312;DHT22;5201;48.776;9.128;2023-02-01T00:06:21;4.30;99.90
10312;DHT22;5201;48.776;9.128;2023-02-01T00:08:47;4.30;99.90
10312;DHT22;5201;48.776;9.128;2023-02-01T00:11:13;4.20;99.90
10312;DHT22;5201;48.776;9.128;2023-02-01T00:13:41;4.30;99.90
10312;DHT22;5201;48.776;9.128;2023-02-01T00:16:09;4.30;99.90
10312;DHT22;5201;48.776;9.128;2023-02-01T00:18:36;4.10;99.90
10312;DHT22;5201;48.776;9.128;2023-02-01T00:21:02;4.30;99.90
10312;DHT22;5201;48.776;9.128;2023-02-01T00:23:28;4.20;99.90
10312;DHT22;5201;48.776;9.128;2023-02-01T00:25:53;4.30;99.90
10312;DHT22;5201;48.776;9.128;2023-02-01T00:28:19;4.20;99.90
10312;DHT22;5201;48.776;9.128;2023-02-01T00:30:45;4.10;99.90
10312;DHT22;5201;48.776;9.128;2023-02-01T00:33:10;4.20;99.90
10312;DHT22;5201;48.776;9.128;2023-02-01T00:35:36;4.20;99.90
10312;DHT22;5201;48.776;9.128;2023-02-01T00:38:02;4.30;99.90
10312;DHT22;5201;48.776;9.128;2023-02-01T00:40:28;3.50;99.90
10312;DHT22;5201;48.776;9.128;2023-02-01T00:42:53;4.40;99.90
10312;DHT22;5201;48.776;9.128;2023-02-01T00:45:20;4.40;99.90
10312;DHT22;5201;48.776;9.128;2023-02-01T00:47:45;4.50;99.90
10312;DHT22;5201;48.776;9.128;2023-02-01T00:50:11;4.50;99.90
10312;DHT22;5201;48.776;9.128;2023-02-01T00:52:36;4.60;99.90
10312;DHT22;5201;48.776;9.128;2023-02-01T00:55:02;4.60;99.90
10312;DHT22;5201;48.776;9.128;2023-02-01T00:57:28;4.70;99.90
10312;DHT22;5201;48.776;9.128;2023-02-01T00:59:53;4.60;99.90
10312;DHT22;5201;48.776;9.128;2023-02-01T01:02:19;4.60;99.90
10312;DHT22;5201;48.776;9.128;2023-02-01T01:04:45;4.70;99.90
10312;DHT22;5201;48.776;9.128;2023-02-01T01:07:10;4.80;99.90
10312;DHT22;5201;48.776;9.128;2023-02-01T01:09:36;4.90;99.90
10312;DHT22;5201;48.776;9.128;2023-02-01T01:12:01;5.00;99.90
10312;DHT22;5201;48.776;9.128;2023-02-01T01:14:31;4.90;99.90
10312;DHT22;5201;48.776;9.128;2023-02-01T01:16:57;4.80;99.90
10312;DHT22;5201;48.776;9.128;2023-02-01T01:19:23;4.70;99.90
10312;DHT22;5201;48.776;9.128;2023-02-01T01:21:49;4.70;99.90
10312;DHT22;5201;48.776;9.128;2023-02-01T01:24:15;4.70;99.90
10312;DHT22;5201;48.776;9.128;2023-02-01T01:26:40;5.30;99.90
10312;DHT22;5201;48.776;9.128;2023-02-01T01:29:06;4.70;99.90
10312;DHT22;5201;48.776;9.128;2023-02-01T01:31:31;4.80;99.90
10312;DHT22;5201;48.776;9.128;2023-02-01T01:33:58;4.80;99.90
10312;DHT22;5201;48.776;9.128;2023-02-01T01:36:25;4.90;99.90
10312;DHT22;5201;48.776;9.128;2023-02-01T01:38:52;4.90;99.90
10312;DHT22;5201;48.776;9.128;2023-02-01T01:41:26;4.80;99.90
10312;DHT22;5201;48.776;9.128;2023-02-01T01:43:57;4.80;99.90
10312;DHT22;5201;48.776;9.128;2023-02-01T01:46:25;4.80;99.90
10312;DHT22;5201;48.776;9.128;2023-02-01T01:49:14;4.70;99.90
10312;DHT22;5201;48.776;9.128;2023-02-01T01:51:44;4.70;99.90
10312;DHT22;5201;48.776;9.128;2023-02-01T01:54:22;4.80;99.90
10312;DHT22;5201;48.776;9.128;2023-02-01T01:56:52;4.80;99.90
10312;DHT22;5201;48.776;9.128;2023-02-01T01:59:21;4.70;99.90
10312;DHT22;5201;48.776;9.128;2023-02-01T02:01:47;4.70;99.90
10312;DHT22;5201;48.776;9.128;2023-02-01T02:04:13;4.70;99.90
10312;DHT22;5201;48.776;9.128;2023-02-01T02:06:44;4.90;99.90
10312;DHT22;5201;48.776;9.128;2023-02-01T02:09:14;4.80;99.90
10312;DHT22;5201;48.776;9.128;2023-02-01T02:11:40;4.90;99.90
10312;DHT22;5201;48.776;9.128;2023-02-01T02:14:08;4.80;99.90
10312;DHT22;5201;48.776;9.128;2023-02-01T02:16:50;4.80;99.90
10312;DHT22;5201;48.776;9.128;2023-02-01T02:21:56;5.00;99.90
10312;DHT22;5201;48.776;9.128;2023-02-01T02:27:09;4.80;99.90
10312;DHT22;5201;48.776;9.128;2023-02-01T02:35:33;4.60;99.90
10312;DHT22;5201;48.776;9.128;2023-02-01T02:38:13;4.80;99.90
10312;DHT22;5201;48.776;9.128;2023-02-01T02:43:48;5.10;99.90
10312;DHT22;5201;48.776;9.128;2023-02-01T02:46:38;5.10;99.90
10312;DHT22;5201;48.776;9.128;2023-02-01T02:52:09;5.00;99.90
10312;DHT22;5201;48.776;9.128;2023-02-01T02:54:57;4.70;99.90
10312;DHT22;5201;48.776;9.128;2023-02-01T02:57:34;4.70;99.90
10312;DHT22;5201;48.776;9.128;2023-02-01T03:00:23;4.80;99.90
10312;DHT22;5201;48.776;9.128;2023-02-01T03:03:08;4.80;99.90
10312;DHT22;5201;48.776;9.128;2023-02-01T03:05:53;4.70;99.90
10312;DHT22;5201;48.776;9.128;2023-02-01T03:08:22;4.80;99.90
10312;DHT22;5201;48.776;9.128;2023-02-01T03:10:53;4.70;99.90
10312;DHT22;5201;48.776;9.128;2023-02-01T03:13:25;4.60;99.90
10312;DHT22;5201;48.776;9.128;2023-02-01T03:21:44;4.70;99.90
10312;DHT22;5201;48.776;9.128;2023-02-01T03:26:38;4.60;99.90
10312;DHT22;5201;48.776;9.128;2023-02-01T03:29:11;4.50;99.90
10312;DHT22;5201;48.776;9.128;2023-02-01T03:31:37;4.30;99.90
10312;DHT22;5201;48.776;9.128;2023-02-01T03:34:03;4.20;99.90
10312;DHT22;5201;48.776;9.128;2023-02-01T03:36:40;4.10;99.90
10312;DHT22;5201;48.776;9.128;2023-02-01T03:41:45;3.90;99.90
10312;DHT22;5201;48.776;9.128;2023-02-01T03:44:16;4.00;99.90
10312;DHT22;5201;48.776;9.128;2023-02-01T03:46:54;4.00;99.90
10312;DHT22;5201;48.776;9.128;2023-02-01T03:49:49;4.00;99.90
10312;DHT22;5201;48.776;9.128;2023-02-01T03:52:23;5.70;99.90
10312;DHT22;5201;48.776;9.128;2023-02-01T03:54:51;4.20;99.90
10312;DHT22;5201;48.776;9.128;2023-02-01T03:57:22;5.20;99.90
10312;DHT22;5201;48.776;9.128;2023-02-01T03:59:49;4.60;99.90
10312;DHT22;5201;48.776;9.128;2023-02-01T04:02:15;4.70;99.90
10312;DHT22;5201;48.776;9.128;2023-02-01T04:04:41;4.80;99.90
10312;DHT22;5201;48.776;9.128;2023-02-01T04:07:06;5.10;99.90
10312;DHT22;5201;48.776;9.128;2023-02-01T04:09:32;5.30;99.90
10312;DHT22;5201;48.776;9.128;2023-02-01T04:11:58;4.80;99.90
10312;DHT22;5201;48.776;9.128;2023-02-01T04:14:23;4.70;99.90
10312;DHT22;5201;48.776;9.128;2023-02-01T04:16:49;4.90;99.90
10312;DHT22;5201;48.776;9.128;2023-02-01T04:19:14;4.90;99.90
10312;DHT22;5201;48.776;9.128;2023-02-01T04:21:40;5.00;99.90
10312;DHT22;5201;48.776;9.128;2023-02-01T04:24:06;5.10;99.90
10312;DHT22;5201;48.776;9.128;2023-02-01T04:26:32;5.30;99.90
10312;DHT22;5201;48.776;9.128;2023-02-01T04:28:57;5.30;99.90
10312;DHT22;5201;48.776;9.128;2023-02-01T04:31:23;5.70;99.90
10312;DHT22;5201;48.776;9.128;2023-02-01T04:33:53;5.30;99.90
10312;DHT22;5201;48.776;9.128;2023-02-01T04:36:19;5.20;99.90
10312;DHT22;5201;48.776;9.128;2023-02-01T04:38:49;5.10;99.90
10312;DHT22;5201;48.776;9.128;2023-02-01T04:41:15;5.00;99.90
10312;DHT22;5201;48.776;9.128;2023-02-01T04:43:46;5.00;99.90
10312;DHT22;5201;48.776;9.128;2023-02-01T04:46:12;6.00;99.90
10312;DHT22;5201;48.776;9.128;2023-02-01T04:48:38;5.30;99.90
10312;DHT22;5201;48.776;9.128;2023-02-01T04:51:04;5.30;99.90
10312;DHT22;5201;48.776;9.128;2023-02-01T04:53:29;5.40;99.90
10312;DHT22;5201;48.776;9.128;2023-02-01T04:55:55;5.40;99.90
10312;DHT22;5201;48.776;9.128;2023-02-01T04:58:21;5.40;99.90
10312;DHT22;5201;48.776;9.128;2023-02-01T05:00:46;5.20;99.90
10312;DHT22;5201;48.776;9.128;2023-02-01T05:03:12;5.10;99.90
10312;DHT22;5201;48.776;9.128;2023-02-01T05:05:38;5.10;99.90
10312;DHT22;5201;48.776;9.128;2023-02-01T05:08:03;5.20;99.90
10312;DHT22;5201;48.776;9.128;2023-02-01T05:10:29;5.30;99.90
10312;DHT22;5201;48.776;9.128;2023-02-01T05:12:54;5.20;99.90
10312;DHT22;5201;48.776;9.128;2023-02-01T05:15:39;5.20;99.90
10312;DHT22;5201;48.776;9.128;2023-02-01T05:18:04;5.20;99.90
10312;DHT22;5201;48.776;9.128;2023-02-01T05:20:30;5.70;99.90
10312;DHT22;5201;48.776;9.128;2023-02-01T05:22:55;5.40;99.90
10312;DHT22;5201;48.776;9.128;2023-02-01T05:25:21;5.50;99.90
10312;DHT22;5201;48.776;9.128;2023-02-01T05:27:47;5.60;99.90
10312;DHT22;5201;48.776;9.128;2023-02-01T05:30:12;5.40;99.90
10312;DHT22;5201;48.776;9.128;2023-02-01T05:32:38;5.40;99.90
10312;DHT22;5201;48.776;9.128;2023-02-01T05:35:04;5.30;99.90
10312;DHT22;5201;48.776;9.128;2023-02-01T05:37:30;5.40;99.90
10312;DHT22;5201;48.776;9.128;2023-02-01T05:39:55;5.40;99.90
10312;DHT22;5201;48.776;9.128;2023-02-01T05:42:21;5.30;99.90
10312;DHT22;5201;48.776;9.128;2023-02-01T05:44:46;5.40;99.90
10312;DHT22;5201;48.776;9.128;2023-02-01T05:47:12;5.30;99.90
10312;DHT22;5201;48.776;9.128;2023-02-01T05:49:38;5.40;99.90
10312;DHT22;5201;48.776;9.128;2023-02-01T05:52:04;5.30;99.90
10312;DHT22;5201;48.776;9.128;2023-02-01T05:54:29;5.30;99.90
10312;DHT22;5201;48.776;9.128;2023-02-01T05:56:55;5.30;99.90
10312;DHT22;5201;48.776;9.128;2023-02-01T05:59:21;5.20;99.90
10312;DHT22;5201;48.776;9.128;2023-02-01T06:01:46;5.00;99.90
10312;DHT22;5201;48.776;9.128;2023-02-01T06:04:12;5.00;99.90
10312;DHT22;5201;48.776;9.128;2023-02-01T06:06:37;4.80;99.90
10312;DHT22;5201;48.776;9.128;2023-02-01T06:09:03;4.50;99.90
10312;DHT22;5201;48.776;9.128;2023-02-01T06:11:29;4.40;99.90
10312;DHT22;5201;48.776;9.128;2023-02-01T06:13:54;4.40;99.90
10312;DHT22;5201;48.776;9.128;2023-02-01T06:16:21;4.40;99.90
10312;DHT22;5201;48.776;9.128;2023-02-01T06:18:47;4.30;99.90
10312;DHT22;5201;48.776;9.128;2023-02-01T06:21:12;4.40;99.90
10312;DHT22;5201;48.776;9.128;2023-02-01T06:23:40;4.40;99.90
10312;DHT22;5201;48.776;9.128;2023-02-01T06:26:06;4.40;99.90
10312;DHT22;5201;48.776;9.128;2023-02-01T06:28:35;4.60;99.90
10312;DHT22;5201;48.776;9.128;2023-02-01T06:31:07;4.70;99.90
10312;DHT22;5201;48.776;9.128;2023-02-01T06:33:33;4.80;99.90
10312;DHT22;5201;48.776;9.128;2023-02-01T06:36:01;4.90;99.90
10312;DHT22;5201;48.776;9.128;2023-02-01T06:38:27;4.90;99.90
10312;DHT22;5201;48.776;9.128;2023-02-01T06:40:53;4.80;99.90
10312;DHT22;5201;48.776;9.128;2023-02-01T06:43:20;4.90;99.90
10312;DHT22;5201;48.776;9.128;2023-02-01T06:45:46;4.90;99.90
10312;DHT22;5201;48.776;9.128;2023-02-01T06:48:11;5.00;99.90
10312;DHT22;5201;48.776;9.128;2023-02-01T06:50:37;5.00;99.90
10312;DHT22;5201;48.776;9.128;2023-02-01T06:53:02;5.10;99.90
10312;DHT22;5201;48.776;9.128;2023-02-01T06:55:28;5.20;99.90
10312;DHT22;5201;48.776;9.128;2023-02-01T06:57:54;5.80;99.90
10312;DHT22;5201;48.776;9.128;2023-02-01T07:00:21;5.20;99.90
10312;DHT22;5201;48.776;9.128;2023-02-01T07:02:48;5.20;99.90
10312;DHT22;5201;48.776;9.128;2023-02-01T07:05:13;5.30;99.90
10312;DHT22;5201;48.776;9.128;2023-02-01T07:07:39;5.20;99.90
10312;DHT22;5201;48.776;9.128;2023-02-01T07:10:05;5.30;99.90
10312;DHT22;5201;48.776;9.128;2023-02-01T07:12:30;5.30;99.90
10312;DHT22;5201;48.776;9.128;2023-02-01T07:14:56;5.40;99.90
10312;DHT22;5201;48.776;9.128;2023-02-01T07:17:22;5.50;99.90
10312;DHT22;5201;48.776;9.128;2023-02-01T07:19:48;5.50;99.90
10312;DHT22;5201;48.776;9.128;2023-02-01T07:22:16;5.60;99.90
10312;DHT22;5201;48.776;9.128;2023-02-01T07:24:42;5.70;99.90
10312;DHT22;5201;48.776;9.128;2023-02-01T07:27:08;5.70;99.90
10312;DHT22;5201;48.776;9.128;2023-02-01T07:29:33;5.80;99.90
10312;DHT22;5201;48.776;9.128;2023-02-01T07:31:59;5.70;99.90
10312;DHT22;5201;48.776;9.128;2023-02-01T07:34:25;5.70;99.90
10312;DHT22;5201;48.776;9.128;2023-02-01T07:36:51;5.60;99.90
10312;DHT22;5201;48.776;9.128;2023-02-01T07:39:16;5.80;99.90
10312;DHT22;5201;48.776;9.128;2023-02-01T07:41:42;5.90;99.90
10312;DHT22;5201;48.776;9.128;2023-02-01T07:44:08;5.70;99.90
10312;DHT22;5201;48.776;9.128;2023-02-01T07:46:33;5.40;99.90
10312;DHT22;5201;48.776;9.128;2023-02-01T07:48:59;5.40;99.90
10312;DHT22;5201;48.776;9.128;2023-02-01T07:51:24;5.50;99.90
10312;DHT22;5201;48.776;9.128;2023-02-01T07:53:50;5.60;99.90
10312;DHT22;5201;48.776;9.128;2023-02-01T07:56:18;5.70;99.90
10312;DHT22;5201;48.776;9.128;2023-02-01T07:58:51;5.70;99.90
10312;DHT22;5201;48.776;9.128;2023-02-01T08:01:19;5.80;99.90
10312;DHT22;5201;48.776;9.128;2023-02-01T08:03:45;5.80;99.90
10312;DHT22;5201;48.776;9.128;2023-02-01T08:06:10;5.90;99.90
10312;DHT22;5201;48.776;9.128;2023-02-01T08:08:36;5.80;99.90
10312;DHT22;5201;48.776;9.128;2023-02-01T08:11:03;5.90;99.90
10312;DHT22;5201;48.776;9.128;2023-02-01T08:13:29;6.00;99.90
10312;DHT22;5201;48.776;9.128;2023-02-01T08:16:03;5.90;99.90
10312;DHT22;5201;48.776;9.128;2023-02-01T08:18:29;5.90;99.90
10312;DHT22;5201;48.776;9.128;2023-02-01T08:20:54;5.90;99.90
10312;DHT22;5201;48.776;9.128;2023-02-01T08:23:21;5.90;99.90
10312;DHT22;5201;48.776;9.128;2023-02-01T08:25:47;6.00;99.90
10312;DHT22;5201;48.776;9.128;2023-02-01T08:28:13;6.10;99.90
10312;DHT22;5201;48.776;9.128;2023-02-01T08:30:39;6.20;99.90
10312;DHT22;5201;48.776;9.128;2023-02-01T08:33:08;6.00;99.90
10312;DHT22;5201;48.776;9.128;2023-02-01T08:35:37;6.10;99.90
10312;DHT22;5201;48.776;9.128;2023-02-01T08:38:03;7.10;99.90
10312;DHT22;5201;48.776;9.128;2023-02-01T08:40:30;6.10;99.90
10312;DHT22;5201;48.776;9.128;2023-02-01T08:42:56;6.10;99.90
10312;DHT22;5201;48.776;9.128;2023-02-01T08:45:25;6.20;99.90
10312;DHT22;5201;48.776;9.128;2023-02-01T08:47:54;6.30;99.90
10312;DHT22;5201;48.776;9.128;2023-02-01T08:50:21;6.30;99.90
10312;DHT22;5201;48.776;9.128;2023-02-01T08:52:47;6.50;99.90
10312;DHT22;5201;48.776;9.128;2023-02-01T08:55:13;6.60;99.90
10312;DHT22;5201;48.776;9.128;2023-02-01T08:57:39;6.60;99.90
10312;DHT22;5201;48.776;9.128;2023-02-01T09:00:07;6.60;99.90
10312;DHT22;5201;48.776;9.128;2023-02-01T09:02:35;6.60;99.90
10312;DHT22;5201;48.776;9.128;2023-02-01T09:05:00;6.70;99.90
10312;DHT22;5201;48.776;9.128;2023-02-01T09:07:26;6.60;99.90
10312;DHT22;5201;48.776;9.128;2023-02-01T09:09:51;6.60;99.90
10312;DHT22;5201;48.776;9.128;2023-02-01T09:12:20;6.70;99.90
10312;DHT22;5201;48.776;9.128;2023-02-01T09:14:45;6.70;99.90
10312;DHT22;5201;48.776;9.128;2023-02-01T09:17:11;6.80;99.90
10312;DHT22;5201;48.776;9.128;2023-02-01T09:19:39;6.50;99.90
10312;DHT22;5201;48.776;9.128;2023-02-01T09:22:04;6.60;99.90
10312;DHT22;5201;48.776;9.128;2023-02-01T09:24:30;6.60;99.90
10312;DHT22;5201;48.776;9.128;2023-02-01T09:26:55;6.40;99.90
10312;DHT22;5201;48.776;9.128;2023-02-01T09:29:21;6.40;99.90
10312;DHT22;5201;48.776;9.128;2023-02-01T09:31:47;6.40;99.90
10312;DHT22;5201;48.776;9.128;2023-02-01T09:34:12;6.50;99.90
10312;DHT22;5201;48.776;9.128;2023-02-01T09:36:38;6.50;99.90
10312;DHT22;5201;48.776;9.128;2023-02-01T09:39:03;6.60;99.90
10312;DHT22;5201;48.776;9.128;2023-02-01T09:42:04;6.60;99.90
10312;DHT22;5201;48.776;9.128;2023-02-01T09:47:24;6.60;99.90
10312;DHT22;5201;48.776;9.128;2023-02-01T09:52:27;6.80;99.90
10312;DHT22;5201;48.776;9.128;2023-02-01T09:55:03;6.80;99.90
10312;DHT22;5201;48.776;9.128;2023-02-01T09:57:44;6.70;99.90
10312;DHT22;5201;48.776;9.128;2023-02-01T10:00:20;6.70;99.90
10312;DHT22;5201;48.776;9.128;2023-02-01T10:02:50;6.80;99.90
10312;DHT22;5201;48.776;9.128;2023-02-01T10:05:20;6.80;99.90
10312;DHT22;5201;48.776;9.128;2023-02-01T10:08:04;7.30;99.90
10312;DHT22;5201;48.776;9.128;2023-02-01T10:10:36;6.80;99.90
10312;DHT22;5201;48.776;9.128;2023-02-01T10:16:10;6.80;99.90
10312;DHT22;5201;48.776;9.128;2023-02-01T10:18:59;6.90;99.90
10312;DHT22;5201;48.776;9.128;2023-02-01T10:21:40;6.90;99.90
10312;DHT22;5201;48.776;9.128;2023-02-01T10:27:20;7.10;99.90
10312;DHT22;5201;48.776;9.128;2023-02-01T10:29:54;7.00;99.90
10312;DHT22;5201;48.776;9.128;2023-02-01T10:32:29;7.00;99.90
10312;DHT22;5201;48.776;9.128;2023-02-01T10:35:17;7.10;99.90
10312;DHT22;5201;48.776;9.128;2023-02-01T10:37:44;7.10;99.90
10312;DHT22;5201;48.776;9.128;2023-02-01T10:40:23;7.20;99.90
10312;DHT22;5201;48.776;9.128;2023-02-01T10:42:58;7.10;99.90
10312;DHT22;5201;48.776;9.128;2023-02-01T10:45:28;7.00;99.90
10312;DHT22;5201;48.776;9.128;2023-02-01T10:47:56;6.90;99.90
10312;DHT22;5201;48.776;9.128;2023-02-01T10:50:36;7.10;99.90
10312;DHT22;5201;48.776;9.128;2023-02-01T10:53:15;7.10;99.90
10312;DHT22;5201;48.776;9.128;2023-02-01T10:58:20;7.10;99.90
10312;DHT22;5201;48.776;9.128;2023-02-01T11:00:51;7.10;99.90
10312;DHT22;5201;48.776;9.128;2023-02-01T11:03:52;7.10;99.90
10312;DHT22;5201;48.776;9.128;2023-02-01T11:06:33;7.10;99.90
10312;DHT22;5201;48.776;9.128;2023-02-01T11:11:58;7.10;99.90
10312;DHT22;5201;48.776;9.128;2023-02-01T11:16:54;7.10;99.90
10312;DHT22;5201;48.776;9.128;2023-02-01T11:19:20;7.10;99.90
10312;DHT22;5201;48.776;9.128;2023-02-01T11:21:51;7.00;99.90
10312;DHT22;5201;48.776;9.128;2023-02-01T11:26:53;7.00;99.90
10312;DHT22;5201;48.776;9.128;2023-02-01T11:29:19;7.00;99.90
10312;DHT22;5201;48.776;9.128;2023-02-01T11:31:50;7.10;99.90
10312;DHT22;5201;48.776;9.128;2023-02-01T11:34:24;7.10;99.90
10312;DHT22;5201;48.776;9.128;2023-02-01T11:36:50;7.10;99.90
10312;DHT22;5201;48.776;9.128;2023-02-01T11:39:26;7.10;99.90
10312;DHT22;5201;48.776;9.128;2023-02-01T11:44:38;7.10;99.90
10312;DHT22;5201;48.776;9.128;2023-02-01T11:47:29;7.10;99.90
10312;DHT22;5201;48.776;9.128;2023-02-01T11:49:59;7.10;99.90
10312;DHT22;5201;48.776;9.128;2023-02-01T12:01:12;7.10;99.90
10312;DHT22;5201;48.776;9.128;2023-02-01T12:22:53;7.10;99.90
10312;DHT22;5201;48.776;9.128;2023-02-01T12:30:37;7.30;99.90
10312;DHT22;5201;48.776;9.128;2023-02-01T12:33:27;7.30;99.90
10312;DHT22;5201;48.776;9.128;2023-02-01T12:39:16;7.10;99.90
10312;DHT22;5201;48.776;9.128;2023-02-01T12:47:27;6.70;99.90
10312;DHT22;5201;48.776;9.128;2023-02-01T12:52:33;6.70;99.90
10312;DHT22;5201;48.776;9.128;2023-02-01T12:55:23;6.70;99.90
10312;DHT22;5201;48.776;9.128;2023-02-01T12:58:12;6.70;99.90
10312;DHT22;5201;48.776;9.128;2023-02-01T13:01:20;6.70;99.90
10312;DHT22;5201;48.776;9.128;2023-02-01T13:03:52;6.70;99.90
10312;DHT22;5201;48.776;9.128;2023-02-01T13:06:36;7.60;99.90
10312;DHT22;5201;48.776;9.128;2023-02-01T13:09:31;6.70;99.90
10312;DHT22;5201;48.776;9.128;2023-02-01T13:12:06;6.80;99.90
10312;DHT22;5201;48.776;9.128;2023-02-01T13:14:48;6.90;99.90
10312;DHT22;5201;48.776;9.128;2023-02-01T13:17:23;6.90;99.90
10312;DHT22;5201;48.776;9.128;2023-02-01T13:22:50;6.90;99.90
10312;DHT22;5201;48.776;9.128;2023-02-01T13:25:49;6.80;99.90
10312;DHT22;5201;48.776;9.128;2023-02-01T13:31:35;7.20;99.90
10312;DHT22;5201;48.776;9.128;2023-02-01T13:42:25;6.70;99.90
10312;DHT22;5201;48.776;9.128;2023-02-01T13:44:55;6.80;99.90
10312;DHT22;5201;48.776;9.128;2023-02-01T13:47:43;6.90;99.90
10312;DHT22;5201;48.776;9.128;2023-02-01T13:50:37;7.00;99.90
10312;DHT22;5201;48.776;9.128;2023-02-01T13:55:40;8.00;99.90
10312;DHT22;5201;48.776;9.128;2023-02-01T13:58:12;7.00;99.90
10312;DHT22;5201;48.776;9.128;2023-02-01T14:00:41;6.80;99.90
10312;DHT22;5201;48.776;9.128;2023-02-01T14:03:22;6.80;99.90
10312;DHT22;5201;48.776;9.128;2023-02-01T14:06:16;6.90;99.90
10312;DHT22;5201;48.776;9.128;2023-02-01T14:08:43;6.90;99.90
10312;DHT22;5201;48.776;9.128;2023-02-01T14:19:36;8.00;99.90
10312;DHT22;5201;48.776;9.128;2023-02-01T14:24:41;7.00;99.90
10312;DHT22;5201;48.776;9.128;2023-02-01T14:29:41;7.00;99.90
10312;DHT22;5201;48.776;9.128;2023-02-01T14:32:19;6.80;99.90
10312;DHT22;5201;48.776;9.128;2023-02-01T14:34:50;6.90;99.90
10312;DHT22;5201;48.776;9.128;2023-02-01T14:42:20;7.00;99.90
10312;DHT22;5201;48.776;9.128;2023-02-01T14:44:48;7.00;99.90
10312;DHT22;5201;48.776;9.128;2023-02-01T14:52:40;6.80;99.90
10312;DHT22;5201;48.776;9.128;2023-02-01T14:57:43;6.70;99.90
10312;DHT22;5201;48.776;9.128;2023-02-01T15:00:20;6.70;99.90
10312;DHT22;5201;48.776;9.128;2023-02-01T15:02:48;6.80;99.90
10312;DHT22;5201;48.776;9.128;2023-02-01T15:05:23;6.80;99.90
10312;DHT22;5201;48.776;9.128;2023-02-01T15:07:50;6.80;99.90
10312;DHT22;5201;48.776;9.128;2023-02-01T15:10:17;6.70;99.90
10312;DHT22;5201;48.776;9.128;2023-02-01T15:12:45;6.60;99.90
10312;DHT22;5201;48.776;9.128;2023-02-01T15:15:22;6.50;99.90
10312;DHT22;5201;48.776;9.128;2023-02-01T15:17:53;6.50;99.90
10312;DHT22;5201;48.776;9.128;2023-02-01T15:20:31;6.60;99.90
10312;DHT22;5201;48.776;9.128;2023-02-01T15:23:05;7.20;99.90
10312;DHT22;5201;48.776;9.128;2023-02-01T15:25:36;6.60;99.90
10312;DHT22;5201;48.776;9.128;2023-02-01T15:28:04;6.50;99.90
10312;DHT22;5201;48.776;9.128;2023-02-01T15:30:33;6.40;99.90
10312;DHT22;5201;48.776;9.128;2023-02-01T15:33:13;6.70;99.90
10312;DHT22;5201;48.776;9.128;2023-02-01T15:35:41;6.50;99.90
10312;DHT22;5201;48.776;9.128;2023-02-01T15:43:27;6.50;99.90
10312;DHT22;5201;48.776;9.128;2023-02-01T15:46:01;6.60;99.90
10312;DHT22;5201;48.776;9.128;2023-02-01T15:48:42;6.60;99.90
10312;DHT22;5201;48.776;9.128;2023-02-01T15:51:17;6.70;99.90
10312;DHT22;5201;48.776;9.128;2023-02-01T15:53:49;6.70;99.90
10312;DHT22;5201;48.776;9.128;2023-02-01T15:56:16;6.70;99.90
10312;DHT22;5201;48.776;9.128;2023-02-01T15:58:51;6.70;99.90
10312;DHT22;5201;48.776;9.128;2023-02-01T16:01:18;6.80;99.90
10312;DHT22;5201;48.776;9.128;2023-02-01T16:03:46;6.80;99.90
10312;DHT22;5201;48.776;9.128;2023-02-01T16:11:29;6.80;99.90
10312;DHT22;5201;48.776;9.128;2023-02-01T16:13:59;6.70;99.90
10312;DHT22;5201;48.776;9.128;2023-02-01T16:16:27;6.80;99.90
10312;DHT22;5201;48.776;9.128;2023-02-01T16:18:53;6.70;99.90
10312;DHT22;5201;48.776;9.128;2023-02-01T16:21:19;6.70;99.90
10312;DHT22;5201;48.776;9.128;2023-02-01T16:23:48;6.70;99.90
10312;DHT22;5201;48.776;9.128;2023-02-01T16:26:15;6.60;99.90
10312;DHT22;5201;48.776;9.128;2023-02-01T16:28:40;6.70;99.90
10312;DHT22;5201;48.776;9.128;2023-02-01T16:31:13;6.70;99.90
10312;DHT22;5201;48.776;9.128;2023-02-01T16:33:45;6.80;99.90
10312;DHT22;5201;48.776;9.128;2023-02-01T16:36:11;7.30;99.90
10312;DHT22;5201;48.776;9.128;2023-02-01T16:38:38;7.00;99.90
10312;DHT22;5201;48.776;9.128;2023-02-01T16:41:04;6.80;99.90
10312;DHT22;5201;48.776;9.128;2023-02-01T16:43:31;6.70;99.90
10312;DHT22;5201;48.776;9.128;2023-02-01T16:46:00;7.60;99.90
10312;DHT22;5201;48.776;9.128;2023-02-01T16:48:38;6.90;99.90
10312;DHT22;5201;48.776;9.128;2023-02-01T16:51:11;6.90;99.90
10312;DHT22;5201;48.776;9.128;2023-02-01T16:53:37;6.90;99.90
10312;DHT22;5201;48.776;9.128;2023-02-01T16:56:14;6.80;99.90
10312;DHT22;5201;48.776;9.128;2023-02-01T16:58:40;6.70;99.90
10312;DHT22;5201;48.776;9.128;2023-02-01T17:01:09;7.20;99.90
10312;DHT22;5201;48.776;9.128;2023-02-01T17:03:35;6.50;99.90
10312;DHT22;5201;48.776;9.128;2023-02-01T17:06:01;6.60;99.90
10312;DHT22;5201;48.776;9.128;2023-02-01T17:08:33;6.30;99.90
10312;DHT22;5201;48.776;9.128;2023-02-01T17:10:59;6.30;99.90
10312;DHT22;5201;48.776;9.128;2023-02-01T17:13:25;6.30;99.90
10312;DHT22;5201;48.776;9.128;2023-02-01T17:15:59;5.90;99.90
10312;DHT22;5201;48.776;9.128;2023-02-01T17:18:31;6.40;99.90
10312;DHT22;5201;48.776;9.128;2023-02-01T17:20:58;6.40;99.90
10312;DHT22;5201;48.776;9.128;2023-02-01T17:23:24;6.40;99.90
10312;DHT22;5201;48.776;9.128;2023-02-01T17:25:50;6.40;99.90
10312;DHT22;5201;48.776;9.128;2023-02-01T17:28:16;6.40;99.90
10312;DHT22;5201;48.776;9.128;2023-02-01T17:30:42;6.40;99.90
10312;DHT22;5201;48.776;9.128;2023-02-01T17:33:30;6.50;99.90
10312;DHT22;5201;48.776;9.128;2023-02-01T17:35:57;6.60;99.90
10312;DHT22;5201;48.776;9.128;2023-02-01T17:38:23;6.60;99.90
10312;DHT22;5201;48.776;9.128;2023-02-01T17:40:49;6.70;99.90
10312;DHT22;5201;48.776;9.128;2023-02-01T17:43:20;6.70;99.90
10312;DHT22;5201;48.776;9.128;2023-02-01T17:45:49;6.50;99.90
10312;DHT22;5201;48.776;9.128;2023-02-01T17:48:21;6.60;99.90
10312;DHT22;5201;48.776;9.128;2023-02-01T17:50:48;6.60;99.90
10312;DHT22;5201;48.776;9.128;2023-02-01T17:53:26;6.60;99.90
10312;DHT22;5201;48.776;9.128;2023-02-01T17:55:52;6.50;99.90
10312;DHT22;5201;48.776;9.128;2023-02-01T17:58:18;6.40;99.90
10312;DHT22;5201;48.776;9.128;2023-02-01T18:00:45;6.80;99.90
10312;DHT22;5201;48.776;9.128;2023-02-01T18:03:32;6.40;99.90
10312;DHT22;5201;48.776;9.128;2023-02-01T18:05:59;6.40;99.90
10312;DHT22;5201;48.776;9.128;2023-02-01T18:08:28;6.40;99.90
10312;DHT22;5201;48.776;9.128;2023-02-01T18:10:59;6.40;99.90
10312;DHT22;5201;48.776;9.128;2023-02-01T18:13:28;6.30;99.90
10312;DHT22;5201;48.776;9.128;2023-02-01T18:15:54;6.30;99.90
10312;DHT22;5201;48.776;9.128;2023-02-01T18:18:20;6.30;99.90
10312;DHT22;5201;48.776;9.128;2023-02-01T18:20:47;7.20;99.90
10312;DHT22;5201;48.776;9.128;2023-02-01T18:23:22;6.30;99.90
10312;DHT22;5201;48.776;9.128;2023-02-01T18:25:49;6.30;99.90
10312;DHT22;5201;48.776;9.128;2023-02-01T18:28:16;6.30;99.90
10312;DHT22;5201;48.776;9.128;2023-02-01T18:30:47;6.30;99.90
10312;DHT22;5201;48.776;9.128;2023-02-01T18:33:18;6.20;99.90
10312;DHT22;5201;48.776;9.128;2023-02-01T18:35:44;6.20;99.90
10312;DHT22;5201;48.776;9.128;2023-02-01T18:38:09;6.20;99.90
10312;DHT22;5201;48.776;9.128;2023-02-01T18:40:39;6.30;99.90
10312;DHT22;5201;48.776;9.128;2023-02-01T18:43:08;6.40;99.90
10312;DHT22;5201;48.776;9.128;2023-02-01T18:48:02;6.60;99.90
10312;DHT22;5201;48.776;9.128;2023-02-01T18:50:30;6.50;99.90
10312;DHT22;5201;48.776;9.128;2023-02-01T18:52:57;6.60;99.90